Time,TemperatureF,DewpointF,PressureIn,WindDirection,WindDirectionDegrees,WindSpeedMPH,WindSpeedGustMPH,Humidity,HourlyPrecipIn,Conditions,Clouds,dailyrainin,SoftwareType,DateUTC
2013-01-10 15:01:00,34.9,1.0,30.26,ESE,109,0.0,-999.0,24,-99.99,,,0.00,weatherlink.com 1.10,2013-01-10 22:01:00,
2013-01-10 15:12:00,34.5,1.0,30.26,East,94,1.0,-999.0,24,-99.99,,,0.00,weatherlink.com 1.10,2013-01-10 22:12:00,
2013-01-10 15:27:00,34.1,2.0,30.26,ESE,113,0.0,-999.0,26,-99.99,,,0.00,weatherlink.com 1.10,2013-01-10 22:27:00,
2013-01-10 15:42:00,33.5,2.0,30.25,North,5,1.0,-999.0,26,-99.99,,,0.00,weatherlink.com 1.10,2013-01-10 22:42:00,
2013-01-10 15:57:00,33.1,2.0,30.25,ESE,108,0.0,-999.0,27,-99.99,,,0.00,weatherlink.com 1.10,2013-01-10 22:57:00,
2013-01-10 16:12:00,32.4,1.0,30.24,ENE,61,0.0,-999.0,26,-99.99,,,0.00,weatherlink.com 1.10,2013-01-10 23:12:00,
2013-01-10 16:27:00,31.4,2.0,30.24,ENE,61,0.0,-999.0,28,-99.99,,,0.00,weatherlink.com 1.10,2013-01-10 23:27:00,
2013-01-10 16:42:00,30.1,1.0,30.22,ENE,61,0.0,-999.0,28,-99.99,,,0.00,weatherlink.com 1.10,2013-01-10 23:42:00,
2013-01-10 16:57:00,28.5,1.0,30.21,ENE,61,0.0,-999.0,31,-99.99,,,0.00,weatherlink.com 1.10,2013-01-10 23:57:00,
2013-01-10 17:12:00,27.7,1.0,30.20,ENE,67,1.0,-999.0,32,-99.99,,,0.00,weatherlink.com 1.10,2013-01-11 00:12:00,
2013-01-10 17:27:00,27.2,1.0,30.20,ENE,67,0.0,-999.0,32,-99.99,,,0.00,weatherlink.com 1.10,2013-01-11 00:27:00,
2013-01-10 17:42:00,26.9,3.0,30.20,NNW,347,0.0,-999.0,35,-99.99,,,0.00,weatherlink.com 1.10,2013-01-11 00:42:00,
2013-01-10 17:57:00,27.4,2.0,30.18,ENE,57,0.0,-999.0,34,-99.99,,,0.00,weatherlink.com 1.10,2013-01-11 00:57:00,
2013-01-10 18:12:00,27.7,4.0,30.17,ESE,103,0.0,-999.0,36,-99.99,,,0.00,weatherlink.com 1.10,2013-01-11 01:12:00,
2013-01-10 18:27:00,28.0,4.0,30.16,East,92,4.0,-999.0,36,-99.99,,,0.00,weatherlink.com 1.10,2013-01-11 01:27:00,
2013-01-10 18:42:00,27.8,5.0,30.15,NE,46,0.0,-999.0,37,-99.99,,,0.00,weatherlink.com 1.10,2013-01-11 01:42:00,
2013-01-10 18:57:00,26.2,2.0,30.15,WNW,301,0.0,-999.0,35,-99.99,,,0.00,weatherlink.com 1.10,2013-01-11 01:57:00,
2013-01-10 19:12:00,24.2,2.0,30.14,WNW,300,0.0,-999.0,38,-99.99,,,0.00,weatherlink.com 1.10,2013-01-11 02:12:00,
2013-01-10 19:27:00,22.9,2.0,30.13,WNW,301,0.0,-999.0,40,-99.99,,,0.00,weatherlink.com 1.10,2013-01-11 02:27:00,
2013-01-10 19:42:00,22.1,2.0,30.12,WNW,301,0.0,-999.0,41,-99.99,,,0.00,weatherlink.com 1.10,2013-01-11 02:42:00,
2013-01-10 19:57:00,21.6,2.0,30.10,WNW,301,0.0,-999.0,42,-99.99,,,0.00,weatherlink.com 1.10,2013-01-11 02:57:00,
2013-01-10 20:12:00,21.3,2.0,30.10,WNW,300,0.0,-999.0,43,-99.99,,,0.00,weatherlink.com 1.10,2013-01-11 03:12:00,
2013-01-10 20:27:00,20.9,3.0,30.09,WNW,301,0.0,-999.0,47,-99.99,,,0.00,weatherlink.com 1.10,2013-01-11 03:27:00,
2013-01-10 20:42:00,20.4,4.0,30.08,WNW,299,0.0,-999.0,49,-99.99,,,0.00,weatherlink.com 1.10,2013-01-11 03:42:00,
2013-01-10 20:57:00,19.9,3.0,30.07,East,85,1.0,-999.0,49,-99.99,,,0.00,weatherlink.com 1.10,2013-01-11 03:57:00,
2013-01-10 21:12:00,20.5,6.0,30.06,East,84,0.0,-999.0,53,-99.99,,,0.00,weatherlink.com 1.10,2013-01-11 04:12:00,
2013-01-10 21:27:00,20.6,6.0,30.02,WSW,250,0.0,-999.0,54,-99.99,,,0.00,weatherlink.com 1.10,2013-01-11 04:27:00,
2013-01-10 21:42:00,19.9,7.0,30.01,WSW,246,0.0,-999.0,58,-99.99,,,0.00,weatherlink.com 1.10,2013-01-11 04:42:00,
2013-01-10 21:57:00,18.9,7.0,30.01,WSW,246,0.0,-999.0,59,-99.99,,,0.00,weatherlink.com 1.10,2013-01-11 04:57:00,
2013-01-10 22:12:00,17.7,6.0,30.01,WSW,246,0.0,-999.0,60,-99.99,,,0.00,weatherlink.com 1.10,2013-01-11 05:12:00,
2013-01-10 22:27:00,16.6,7.0,29.99,WSW,246,0.0,-999.0,65,-99.99,,,0.00,weatherlink.com 1.10,2013-01-11 05:27:00,
2013-01-10 22:42:00,15.8,7.0,29.98,WSW,246,0.0,-999.0,68,-99.99,,,0.00,weatherlink.com 1.10,2013-01-11 05:42:00,
2013-01-10 22:57:00,15.9,8.0,29.97,WSW,246,0.0,-999.0,70,-99.99,,,0.00,weatherlink.com 1.10,2013-01-11 05:57:00,
2013-01-10 23:12:00,15.9,7.0,29.96,WSW,246,0.0,-999.0,69,-99.99,,,0.00,weatherlink.com 1.10,2013-01-11 06:12:00,
2013-01-10 23:27:00,16.2,8.0,29.95,WSW,257,0.0,-999.0,69,-99.99,,,0.00,weatherlink.com 1.10,2013-01-11 06:27:00,
2013-01-10 23:42:00,16.0,7.0,29.93,NW,307,0.0,-999.0,67,-99.99,,,0.00,weatherlink.com 1.10,2013-01-11 06:42:00,
2013-01-10 23:57:00,15.4,6.0,29.90,NW,308,0.0,-999.0,67,-99.99,,,0.00,weatherlink.com 1.10,2013-01-11 06:57:00,